Tiempo atmosférico en la estación meteorológica de San Sebastián Aeropuerto, Gipuzkoa (4 m.)



Fecha
DESCASC
Temp. máxima en grados centígrados (hora)
DESCASC
Temp. mínima en grados centígrados (hora)
DESCASC
Temp. media en grados centígrados
DESCASC
Racha de viento máxima en m/sg (hora)
DESCASC
Velocidad máxima media en intervalos de 10 minutos(hora)
DESCASC
Precipitaciones diarias en mm
DESCASC
Precipitaciones de 00:00 a 06:00 en mm
DESCASC
Precipitaciones de 06:00 a 12:00 en mm
DESCASC
Precipitaciones de 12:00 a 18:00 en mm
DESCASC
Precipitaciones de 18:00 a 24:00 en mm
DESCASC
14-12-2019 20 (14:40) 12.6 (23:00) 16.3 10.83 (00:10) 6.94 (18:00) 0 0 0 0 0
13-12-2019 15.8 (03:10) 14.3 (17:20) 15.1 21.67 (02:40) 11.67 (03:00) 6.2 3.9 0 2.3 0
12-12-2019 15.2 (23:59) 9.2 (06:10) 12.2 16.94 (23:10) 8.89 (16:10) 46.8 17.4 1.7 7.8 19.9
11-12-2019 14.5 (07:00) 8.9 (00:00) 11.7 16.94 (19:10) 10.28 (19:30) 47.5 0 22.8 3.5 21.2
10-12-2019 15.1 (15:50) 8.1 (00:00) 11.6 7.22 (12:30) 5.83 (12:30) 0 0 0 0 0
09-12-2019 14.2 (13:40) 11.1 (00:00) 12.7 16.94 (06:40) 9.72 (05:30) 9.4 0.1 5.7 2.5 1.1
08-12-2019 14 (12:10) 5.8 (00:00) 9.9 12.78 (21:50) 6.67 (21:30) 7.3 0 0 5.9 1.4
07-12-2019 16.3 (15:20) 6.3 (00:00) 11.3 4.17 (02:30) 3.33 (02:40) 0 0 0 0 0
06-12-2019 13.7 (13:50) 3.9 (00:00) 8.8 5 (14:30) 3.89 (14:20) 0 0 0 0 0
05-12-2019 14.6 (14:50) 6.5 (00:00) 10.6 4.17 (14:40) 2.78 (14:40) 0 0 0 0 0
04-12-2019 10.4 (17:10) 0.7 (00:00) 5.5 7.22 (22:30) 5 (22:30) 0 0 0 0 0
03-12-2019 7.4 (15:40) 1.8 (00:00) 4.6 5 (11:30) 3.61 (11:20) 0 0 0 0 0
02-12-2019 10.1 (11:10) 5.5 (00:00) 7.8 8.33 (14:20) 5 (14:20) 1.1 0.2 0.9 0 0
01-12-2019 15.3 (14:40) 4.5 (00:00) 9.9 4.72 (14:50) 3.06 (07:00) 0 0 0 0 0
30-11-2019 17.8 (09:20) 7.1 (00:00) 12.4 15.28 (12:10) 10 (12:10) 16.9 0 1.4 15.3 0.2
29-11-2019 17.8 (14:50) 9 (00:00) 13.4 8.89 (04:30) 4.44 (03:40) 1.3 1.3 0 0 0
28-11-2019 14.8 (12:50) 10.5 (00:00) 12.7 9.72 (09:50) 5.83 (10:10) 8.4 1.3 1.2 4.5 1.4
27-11-2019 18.1 (13:50) 9.7 (00:00) 13.9 10.83 (17:50) 6.67 (17:50) 1.6 0 0 0.6 1
26-11-2019 21.2 (13:20) 8.3 (00:00) 14.8 16.11 (13:30) 11.39 (13:20) 0 0 0 0 0
25-11-2019 18.3 (12:40) 9.4 (00:00) 13.8 7.22 (13:40) 4.72 (05:10) 0 0 0 0 0
24-11-2019 14.8 (14:10) 9 (00:00) 11.9 11.67 (01:30) 7.5 (01:30) 33.4 22.3 8.4 0 2.7
23-11-2019 16.2 (00:50) 9.8 (00:00) 13 24.17 (08:20) 13.61 (08:20) 55.7 1 28.4 3.9 22.4
22-11-2019 17 (16:50) 7.1 (00:00) 12 18.61 (15:50) 13.33 (19:10) 0 0 0 0 0
21-11-2019 16.5 (14:20) 5.9 (00:00) 11.2 10.28 (13:50) 7.5 (03:00) 0 0 0 0 0
20-11-2019 15.2 (14:20) 2.7 (00:00) 8.9 -- (--) -- (--) 0.2 0 0 0 0.2
19-11-2019 12 (14:40) 3.7 (00:00) 7.9 5.83 (15:30) 3.89 (16:00) 0.8 0.8 0 0 0
18-11-2019 10.7 (14:10) 5.8 (00:00) 8.3 7.78 (00:40) 5 (03:20) 1.6 1 0.6 0 0
17-11-2019 11.1 (15:50) 8 (00:00) 9.6 13.33 (21:20) 8.33 (20:50) 27.9 0 1.5 6.4 20
16-11-2019 8.8 (19:10) 5.5 (00:00) 7.2 12.5 (10:00) 8.61 (19:10) 46.8 0.3 8.7 31.4 6.4

Gráficas

Temp. máximas Temp. mínimas Temp. medias Precipitaciones Rachas de viento máximas Velocidades máximas media en intervalos de 10 minutos

Datos horarios

Fecha y hora oficial Temperatura (ºC) Velocidad del viento (km/h) Dirección del viento Racha (km/h) Dirección de racha Precipitación (mm) Presión (hPa) Tendencia (hPa) Humedad (%)
2019-12-15 23:00:00 16 26 Sur 37 Sur 0 1006.4 -0.7 47
2019-12-15 22:00:00 16.4 25 Sur 32 Sudoeste 0 1006.6 -0.4 46
2019-12-15 21:00:00 16 14 Sur 21 Sur 0 1006.9 0 49
2019-12-15 20:00:00 16.3 14 Sur 18 Sur 0 1007.1 -0.1 48
2019-12-15 19:00:00 16.5 10 Sudeste 28 Sudoeste 0 1007 -0.5 48
2019-12-15 18:00:00 17.5 19 Sur 30 Sur 0 1006.9 -0.5 43
2019-12-15 17:00:00 18 18 Sur 28 Sudoeste 0 1007.2 -0.2 42
2019-12-15 16:00:00 18.6 23 Sur 32 Sur 0 1007.5 -0.1 39
2019-12-15 15:00:00 19.5 15 Sur 35 Sur 0 1007.4 -1.3 38
2019-12-15 14:00:00 20.6 27 Sudoeste 35 Sur 0 1007.4 -1.7 33
2019-12-15 13:00:00 19.9 26 Sur 45 Sudoeste 0 1007.6 -1.2 35
2019-12-15 12:00:00 19.4 28 Sudoeste 42 Sur 0 1008.7 0.3 37
2019-12-15 11:00:00 18.5 22 Sudoeste 30 Sudoeste 0 1009.1 0.6 40
2019-12-15 10:00:00 16.8 17 Sur 28 Sur 0 1008.8 0.4 45
2019-12-15 09:00:00 16.4 23 Sudoeste 33 Sudoeste 0 1008.4 0.2 46
2019-12-15 08:00:00 15.4 15 Sur 26 Sudoeste 0 1008.5 0 51
2019-12-15 07:00:00 15.6 17 Sur 37 Sur 0 1008.4 -0.2 49
2019-12-15 06:00:00 16.4 19 Sudoeste 35 Sudoeste 0 1008.2 -0.6 48
2019-12-15 05:00:00 16 24 Sudoeste 37 Sudoeste 0 1008.5 -0.5 50
2019-12-15 04:00:00 16.6 24 Sudoeste 50 Sudoeste 0 1008.6 -0.6 48
2019-12-15 03:00:00 16.2 21 Sudoeste 37 Sur 0 1008.8 -0.7 50
2019-12-15 02:00:00 16.5 23 Sudoeste 39 Sudoeste 0 1009 -1 49
2019-12-15 01:00:00 16.4 30 Sudoeste 46 Sur 0 1009.2 -0.9 48
2019-12-15 00:00:00 13.6 18 Sur 28 Sur 0 1009.5 -0.9 62
2019-12-14 23:00:00 12.7 12 Sur 15 Sur 0 1010 -0.4 69
2019-12-14 22:00:00 14.1 11 Sur 17 Sudoeste 0 1010.1 -0.4 60
2019-12-14 21:00:00 15.9 15 Sudoeste 30 Sudoeste 0 1010.4 0 54
2019-12-14 20:00:00 15.8 17 Sudoeste 26 Sudoeste 0 1010.4 -0.7 53
2019-12-14 19:00:00 15.4 9 Sudoeste 26 Sur 0 1010.5 -0.5 53
2019-12-14 18:00:00 16.4 25 Sur 30 Sur 0 1010.4 -0.9 52
2019-12-14 17:00:00 17.2 18 Sur 32 Sudoeste 0 1011.1 -0.9 49
2019-12-14 16:00:00 18.6 17 Sudoeste 26 Sudoeste 0 1011 -1.8 46
2019-12-14 15:00:00 19.9 16 Sudoeste 26 Sudoeste 0 1011.3 -2.1 42
2019-12-14 14:00:00 19.8 14 Sudoeste 28 Sudoeste 0 1012 -1.7 44
2019-12-14 13:00:00 18.9 17 Sudoeste 26 Sudoeste 0 1012.8 -0.9 47
2019-12-14 12:00:00 16.8 15 Sudoeste 22 Sudoeste 0 1013.4 0.1 55
2019-12-14 11:00:00 16 17 Sudoeste 24 Oeste 0 1013.7 0.5 57
2019-12-14 10:00:00 15 14 Sudoeste 21 Sudoeste 0 1013.7 1 60
2019-12-14 09:00:00 13.6 11 Sudoeste 17 Sudoeste 0 1013.3 0.9 69
2019-12-14 08:00:00 13.4 12 Sudoeste 17 Sudoeste 0 1013.2 1 71
2019-12-14 07:00:00 13.3 10 Sudoeste 17 Oeste 0 1012.7 0.7 76
2019-12-14 06:00:00 14.1 12 Sudoeste 18 Sudoeste 0 1012.4 0.6 71
2019-12-14 05:00:00 14.3 14 Sudoeste 28 Sudoeste 0 1012.2 0.3 72
2019-12-14 04:00:00 14.1 14 Sudoeste 35 Oeste 0 1012 0.3 74
2019-12-14 03:00:00 13.9 15 Sudoeste 26 Oeste 0 1011.8 0.2 76
2019-12-14 02:00:00 12.9 9 Sudoeste 26 Oeste 0 1011.9 0.6 81
2019-12-14 01:00:00 14.6 18 Oeste 39 Sudoeste 0 1011.7 0 75
2019-12-14 00:00:00 15 24 Sudoeste 58 Sudoeste 0 1011.6 0.2 73
2019-12-13 23:00:00 15.2 34 Oeste 59 Sudoeste 0 1011.3 0.3 69
2019-12-13 22:00:00 15.3 30 Sudoeste 55 Sudoeste 0 1011.7 1.1 72
2019-12-13 21:00:00 15.3 24 Oeste 65 Oeste 0 1011.4 1.8 75
2019-12-13 20:00:00 15.2 30 Oeste 54 Sudoeste 0 1011 2.3 81
2019-12-13 19:00:00 15.4 36 Sudoeste 67 Sudoeste 0 1010.6 2.1 82
2019-12-13 18:00:00 14.4 31 Sudoeste 54 Sudoeste 1.5 1009.6 1.2 91
2019-12-13 17:00:00 14.7 15 Oeste 48 Nordeste 0.8 1008.7 0.2 90
2019-12-13 16:00:00 15.5 14 Oeste 39 Noroeste 0 1008.5 -0.1 83
2019-12-13 15:00:00 15.4 17 Oeste 65 Noroeste 0 1008.4 0.6 83
2019-12-13 14:00:00 15.4 13 Oeste 61 Sudoeste 0 1008.5 1.3 83
2019-12-13 13:00:00 15.5 30 Sudoeste 61 Sudoeste 0 1008.6 2.2 82
2019-12-13 12:00:00 15.4 19 Oeste 72 Sudoeste 0 1007.8 2.9 84
2019-12-13 11:00:00 15.3 19 Oeste 61 Sudoeste 0 1007.2 2.8 84
2019-12-13 10:00:00 15.4 19 Oeste 63 Oeste 0 1006.4 3 84
2019-12-13 09:00:00 15.5 27 Oeste 78 Sudoeste 0 1004.9 2.2 81
2019-12-13 08:00:00 15.7 21 Oeste 55 Oeste 0 1004.4 2.4 81
2019-12-13 07:00:00 15.5 16 Oeste 52 Noroeste 0 1003.4 0.9 81
2019-12-13 06:00:00 15.5 22 Oeste 55 Oeste 0 1002.7 0.2 81
2019-12-13 05:00:00 15.1 28 Sudoeste 68 Oeste 0.5 1002 -0.5 87
2019-12-13 04:00:00 15.6 26 Oeste 72 Sudoeste 0.1 1002.5 -0.3 83
2019-12-13 03:00:00 15.6 42 Sudoeste 78 Sudoeste 0.6 1002.5 -0.5 84
2019-12-13 02:00:00 15.2 24 Oeste 72 Oeste 1 1002.5 -0.4 88
2019-12-13 01:00:00 15.2 27 Oeste 67 Sudoeste 1.7 1002.8 -0.3 90
2019-12-13 00:00:00 15.1 22 Oeste 61 Oeste 1.4 1003 -0.1 91
2019-12-12 23:00:00 14.8 21 Sudoeste 46 Sudoeste 4.6 1002.9 -0.9 93
2019-12-12 22:00:00 14.7 15 Oeste 55 Noroeste 3.1 1003.1 -0.3 92
2019-12-12 21:00:00 14.5 12 Oeste 42 Sudoeste 1.5 1003.1 -0.5 93
2019-12-12 20:00:00 13.1 9 Oeste 55 Sudoeste 6 1003.8 0.6 94
2019-12-12 19:00:00 11.2 22 Sudoeste 35 Sudoeste 3.3 1003.4 -0.2 93
2019-12-12 18:00:00 11.1 27 Sudoeste 41 Sudoeste 2.3 1003.6 -0.9 89
2019-12-12 17:00:00 11.2 28 Sudoeste 48 Sudoeste 1.7 1003.2 -4.5 85
2019-12-12 16:00:00 11.2 29 Sudoeste 46 Sudoeste 1.1 1003.6 -5.7 82
2019-12-12 15:00:00 11.3 27 Sudoeste 41 Sudoeste 0.9 1004.5 -6.5 78
2019-12-12 14:00:00 10.7 18 Sudoeste 30 Sudoeste 1.7 1007.7 -4.8 84
2019-12-12 13:00:00 11.3 18 Sudoeste 24 Sudoeste 0.1 1009.3 -3.8 76
2019-12-12 12:00:00 11.2 16 Sudoeste 33 Oeste 0 1011 -2.9 75
2019-12-12 11:00:00 10.9 23 Sudoeste 33 Sudoeste 0.1 1012.5 -2.1 75
2019-12-12 10:00:00 10.6 19 Sudoeste 30 Sudoeste 0 1013.1 -2.2 76
2019-12-12 09:00:00 9.4 15 Sudoeste 26 Sudoeste 0.4 1013.9 -2 87
2019-12-12 08:00:00 9.3 16 Sudoeste 22 Sudoeste 0.1 1014.6 -2.2 89
2019-12-12 07:00:00 9.5 17 Sudoeste 24 Sudoeste 1.1 1015.3 -2.5 90
2019-12-12 06:00:00 9.3 15 Sudoeste 28 Sur 1.5 1015.9 -2.1 90
2019-12-12 05:00:00 9.3 17 Sudoeste 33 Sudoeste 4.2 1016.8 -1.8 92
2019-12-12 04:00:00 9.6 19 Sudoeste 42 Sudoeste 2.7 1017.8 -1.4 90
2019-12-12 03:00:00 9.6 22 Sudoeste 42 Sudoeste 0.7 1018 -1.7 93
2019-12-12 02:00:00 9.5 12 Sudoeste 28 Sudoeste 7.9 1018.6 -1.3 95
2019-12-12 01:00:00 9.7 15 Sudoeste 32 Sudoeste 0.4 1019.2 -1 93
2019-12-12 00:00:00 10 19 Sudoeste 50 Oeste 5.3 1019.7 -0.9 89
2019-12-11 23:00:00 9.9 14 Oeste 35 Sudoeste 3.2 1019.9 -1.1 93
2019-12-11 22:00:00 10.1 22 Sudoeste 50 Sudoeste 2.4 1020.2 -0.3 87
2019-12-11 21:00:00 10.3 18 Sudoeste 45 Sudoeste 0.3 1020.6 1.2 87
2019-12-11 20:00:00 10.4 19 Oeste 61 Noroeste 1.4 1021 0.8 85
2019-12-11 19:00:00 10.3 24 Oeste 46 Oeste 8.6 1020.5 -0.2 90
2019-12-11 18:00:00 11.1 14 Sudoeste 22 Sudoeste 0 1019.4 -1.4 67
2019-12-11 17:00:00 11.5 18 Sudoeste 35 Sudoeste 0 1020.2 -0.9 71
2019-12-11 16:00:00 10.8 19 Sudoeste 35 Sudoeste 1.4 1020.7 -0.5 80
2019-12-11 15:00:00 10.6 23 Sudoeste 50 Oeste 1.9 1020.8 -0.9 75
2019-12-11 14:00:00 11.3 22 Sudoeste 39 Oeste 0.2 1021.1 -0.7 78
2019-12-11 13:00:00 11.5 18 Oeste 45 Sudoeste 0 1021.2 0.2 76
2019-12-11 12:00:00 10.8 21 Sudoeste 58 Sudoeste 0.1 1021.7 2.3 76
2019-12-11 11:00:00 10.8 15 Oeste 46 Oeste 2.8 1021.8 3.3 84
2019-12-11 10:00:00 11.1 23 Oeste 42 Noroeste 7.2 1021 3.5 93
2019-12-11 09:00:00 12.1 14 Noroeste 41 Oeste 12.6 1019.4 3.1 93
2019-12-11 08:00:00 14.3 21 Oeste 52 Sudoeste 0.1 1018.5 2.2 78
2019-12-11 07:00:00 14.3 12 Oeste 24 Oeste 0 1017.5 0.6 53
2019-12-11 06:00:00 10.4 14 Sur 18 Sur 0 1016.3 -1.5 74
2019-12-11 05:00:00 9 13 Sur 18 Sur 0 1016.3 -2.6 82
2019-12-11 04:00:00 9.1 6 Oeste 11 Sudoeste 0 1016.9 -2.5 84
2019-12-11 03:00:00 9.5 5 Sudoeste 13 Sudeste 0 1017.8 -2.2 81
2019-12-11 02:00:00 9.7 9 Sur 13 Sur 0 1018.9 -1.2 81
2019-12-11 01:00:00 10.7 7 Sur 13 Sur 0 1019.4 -1.4 76
2019-12-11 00:00:00 10 8 Sur 17 Sur 0 1020 -1.2 82
2019-12-10 23:00:00 10 9 Sur 13 Sur 0 1020.1 -1.9 83
2019-12-10 22:00:00 8.8 8 Sur 13 Sur 0 1020.8 -1.2 88
2019-12-10 21:00:00 9.6 9 Sur 11 Sur 0 1021.2 -0.9 86
2019-12-10 20:00:00 9.3 8 Sur 9 Sur 0 1022 -0.7 90
2019-12-10 19:00:00 10.1 6 Sur 11 Sur 0 1022 -1.2 88
2019-12-10 18:00:00 12.2 2 Sudoeste 8 Sur 0 1022.1 -1.8 79
2019-12-10 17:00:00 13.9 3 Sudeste 11 Sudeste 0 1022.7 -2.2 69
2019-12-10 16:00:00 14.8 5 Sudeste 11 Este 0 1023.2 -2.8 62
2019-12-10 15:00:00 15 8 Este 15 Este 0 1023.9 -3.8 60
2019-12-10 14:00:00 14.3 8 Este 17 Sudeste 0 1024.9 -4 63
2019-12-10 13:00:00 12.4 16 Sudeste 26 Sudeste 0 1026 -3 73
2019-12-10 12:00:00 11.6 13 Sudeste 18 Sudeste 0 1027.7 -1.5 78
2019-12-10 11:00:00 10.2 7 Sudeste 11 Sur 0 1028.9 -0.5 86
2019-12-10 10:00:00 8.7 8 Sudeste 13 Sudeste 0 1029 -0.4 93
2019-12-10 09:00:00 8.1 12 Sudeste 15 Sudeste 0 1029.2 -0.5 95
2019-12-10 08:00:00 8.3 8 Sur 11 Sur 0 1029.4 -0.8 95
2019-12-10 07:00:00 8.7 8 Sudeste 11 Sur 0 1029.4 -1.4 96
2019-12-10 06:00:00 9 6 Sur 11 Sur 0 1029.7 -1.4 96
2019-12-10 05:00:00 9.4 9 Sur 13 Sur 0 1030.2 -0.8 95
2019-12-10 04:00:00 10.2 4 Sudoeste 9 Sudeste 0 1030.8 -0.7 93
2019-12-10 03:00:00 10.4 5 Sur 9 Sudoeste 0 1031.1 -0.3 92
2019-12-10 02:00:00 10.8 10 Sur 11 Sur 0 1031 -0.4 88
2019-12-10 01:00:00 11.8 6 Oeste 21 Oeste 0 1031.5 0.1 80
2019-12-10 00:00:00 12 8 Noroeste 26 Noroeste 0 1031.4 0.2 71
2019-12-09 23:00:00 12.4 14 Noroeste 28 Noroeste 0 1031.4 0.4 77
2019-12-09 22:00:00 12 12 Oeste 26 Oeste 0 1031.4 1 83
2019-12-09 21:00:00 12.4 14 Oeste 32 Oeste 0 1031.2 1.4 78
2019-12-09 20:00:00 11.8 19 Oeste 33 Oeste 0.2 1031 1.7 86
2019-12-09 19:00:00 11.8 20 Noroeste 48 Noroeste 0.9 1030.4 1.6 86
2019-12-09 18:00:00 11.3 19 Oeste 50 Noroeste 0.6 1029.8 1.3 87
2019-12-09 17:00:00 12 16 Noroeste 50 Oeste 0.3 1029.3 1.3 80
2019-12-09 16:00:00 12.4 17 Oeste 45 Noroeste 0.4 1028.8 0.8 78
2019-12-09 15:00:00 12.6 23 Noroeste 50 Noroeste 0.4 1028.5 0.5 74
2019-12-09 14:00:00 14 26 Noroeste 48 Oeste 0.1 1028 0.8 67
2019-12-09 13:00:00 13.5 24 Oeste 54 Noroeste 0.7 1028 1.6 71
2019-12-09 12:00:00 13 20 Noroeste 46 Noroeste 0.2 1028 2.4 77
2019-12-09 11:00:00 12.6 24 Noroeste 54 Norte 0 1027.2 2.1 80
2019-12-09 10:00:00 11.8 18 Oeste 58 Oeste 4.5 1026.4 1.6 88
2019-12-09 09:00:00 13.4 14 Oeste 33 Oeste 0 1025.6 1.5 81
2019-12-09 08:00:00 12.7 21 Oeste 52 Sudoeste 0.9 1025.1 0.8 86
2019-12-09 07:00:00 12.6 27 Oeste 61 Noroeste 0.1 1024.8 0.1 75
2019-12-09 06:00:00 13.3 35 Sudoeste 59 Oeste 0 1024.1 -0.3 78
2019-12-09 05:00:00 13.3 31 Oeste 52 Oeste 0.1 1024.3 -0.2 74
2019-12-09 04:00:00 13 28 Sudoeste 48 Sudoeste 0 1024.7 0.1 71
2019-12-09 03:00:00 12.8 20 Sudoeste 37 Sudoeste 0 1024.4 0 72
2019-12-09 02:00:00 13.3 19 Sudoeste 41 Oeste 0 1024.5 0.1 71
2019-12-09 01:00:00 13.6 23 Oeste 41 Oeste 0 1024.6 -0.2 73
2019-12-09 00:00:00 12.9 11 Sudoeste 41 Oeste 0 1024.4 -0.1 76
2019-12-08 23:00:00 13.5 17 Oeste 30 Sudoeste 0 1024.4 -0.2 77
2019-12-08 22:00:00 13.7 14 Oeste 46 Sudoeste 0 1024.8 1.1 73
2019-12-08 21:00:00 13.6 11 Oeste 33 Sudoeste 0 1024.5 2.1 73
2019-12-08 20:00:00 13.4 22 Oeste 39 Noroeste 0 1024.6 3.5 80
2019-12-08 19:00:00 13.5 13 Oeste 37 Oeste 1.4 1023.7 3.3 82
2019-12-08 18:00:00 13.8 9 Oeste 35 Oeste 2.4 1022.4 2.6 96
2019-12-08 17:00:00 12.8 20 Sudoeste 30 Sudoeste 0.5 1021.1 1 97
2019-12-08 16:00:00 12.9 19 Sudoeste 28 Sudoeste 0.5 1020.4 0 95
2019-12-08 15:00:00 12.9 14 Sudoeste 21 Sudoeste 1.3 1019.8 -0.7 92
2019-12-08 14:00:00 12.7 15 Sudoeste 21 Sudoeste 1 1020.1 -0.6 90
2019-12-08 13:00:00 13.1 14 Sudoeste 22 Sudoeste 0.2 1020.4 0 86
2019-12-08 12:00:00 13.7 12 Sudoeste 17 Sudoeste 0 1020.5 0.6 72
2019-12-08 11:00:00 12.2 13 Sur 17 Sur 0 1020.7 0.3 79
2019-12-08 10:00:00 11.7 13 Sur 17 Sur 0 1020.4 -0.1 80
2019-12-08 09:00:00 8.8 9 Sur 21 Sur 0 1019.9 -0.5 92
2019-12-08 08:00:00 7.9 14 Sur 21 Sur 0 1020.4 -0.3 97
2019-12-08 07:00:00 6.2 9 Sur 11 Sudoeste 0 1020.5 -1 96
2019-12-08 06:00:00 6.8 9 Sur 15 Sur 0 1020.4 -1.4 97
2019-12-08 05:00:00 6.7 8 Sur 13 Sudoeste 0 1020.7 -1.4 96
2019-12-08 04:00:00 7.3 6 Sudoeste -- -- 0 1021.5 -1 96
2019-12-08 03:00:00 7.7 8 Sur 13 Sur 0 1021.8 -1.1 96
2019-12-08 02:00:00 7.9 5 Sudoeste 11 Sur 0 1022.1 -0.6 95
2019-12-08 01:00:00 8.7 8 Sur 11 Sur 0 1022.5 -0.4 93
2019-12-08 00:00:00 8.6 6 Sudoeste 11 Sur 0 1022.9 -0.3 94
2019-12-07 23:00:00 8.4 5 Oeste 9 Sudoeste 0 1022.7 -0.5 94
2019-12-07 22:00:00 9.3 8 Sudoeste -- -- 0 1022.9 -0.2 92
2019-12-07 21:00:00 11.1 4 Sur -- -- 0 1023.2 0.4 87
2019-12-07 20:00:00 12.3 5 Sur 9 Sudoeste 0 1023.2 1 83
2019-12-07 19:00:00 13.6 0 Calma 8 Sudoeste 0 1023.1 1.2 77
2019-12-07 18:00:00 13.9 4 Este 8 Nordeste 0 1022.8 1 78
2019-12-07 17:00:00 15.5 5 Norte 9 Norte 0 1022.2 -0.2 61
2019-12-07 16:00:00 16.1 5 Noroeste 11 Oeste 0 1021.9 -1.1 60
2019-12-07 15:00:00 16.1 6 Oeste 11 Oeste 0 1021.8 -1.7 63
2019-12-07 14:00:00 16 2 Nordeste 8 Sur 0 1022.4 -1.6 61
2019-12-07 13:00:00 14.4 5 Sur 9 Sur 0 1023 -0.8 70
2019-12-07 12:00:00 11.7 7 Sur 9 Sur 0 1023.5 0 81
2019-12-07 11:00:00 9.7 5 Sur 13 Sur 0 1024 0.9 89
2019-12-07 10:00:00 8.2 10 Sur 13 Sur 0 1023.8 1.2 93
2019-12-07 09:00:00 6.6 5 Sur 15 Sur 0 1023.5 1.2 96
2019-12-07 08:00:00 6.4 9 Sur 13 Sudoeste 0 1023.1 0.8 96
2019-12-07 07:00:00 6.5 8 Sur 11 Sur 0 1022.6 0.1 96
2019-12-07 06:00:00 7 8 Sur 11 Sudoeste 0 1022.3 0.2 96
2019-12-07 05:00:00 7.4 6 Sur 11 Sur 0 1022.3 -0.2 96
2019-12-07 04:00:00 8.2 8 Sur 9 Sur 0 1022.5 -0.5 95
2019-12-07 03:00:00 8.5 5 Sur 15 Sur 0 1022.1 -1.4 95
2019-12-07 02:00:00 9.1 8 Sur 11 Sur 0 1022.5 -0.7 95
2019-12-07 01:00:00 9.2 10 Sur 11 Sur 0 1023 0.8 95
2019-12-07 00:00:00 9.2 5 Sudoeste 13 Sudoeste 0 1023.5 1.4 95
2019-12-06 23:00:00 8.4 6 Sudoeste 13 Sur 0 1023.2 1.7 96
2019-12-06 22:00:00 7.5 12 Sur 17 Sur 0 1022.2 0.9 95
2019-12-06 21:00:00 8.6 4 Sur 9 Noroeste 0 1022.1 1.2 94
2019-12-06 20:00:00 9.1 6 Oeste 9 Sudoeste 0 1021.5 1 94
2019-12-06 19:00:00 9.9 5 Sudoeste 9 Noroeste 0 1021.3 1.2 92
2019-12-06 18:00:00 11.3 2 Oeste 8 Noroeste 0 1020.9 0.6 88
2019-12-06 17:00:00 12.3 3 Nordeste 9 Norte 0 1020.5 -0.3 83
2019-12-06 16:00:00 13.1 8 Nordeste 13 Nordeste 0 1020.1 -1.3 80
2019-12-06 15:00:00 13.3 12 Nordeste 18 Nordeste 0 1020.3 -2.1 75
2019-12-06 14:00:00 13.7 13 Nordeste 17 Nordeste 0 1020.8 -2.2 73
2019-12-06 13:00:00 12.8 5 Nordeste 11 Sudeste 0 1021.4 -1.6 72
2019-12-06 12:00:00 10.8 8 Sur 9 Sur 0 1022.4 -0.5 79
2019-12-06 11:00:00 8.8 0 Calma 11 Sudeste 0 1023 -0.1 87
2019-12-06 10:00:00 6.4 8 Sur 11 Sur 0 1023 -0.1 96
2019-12-06 09:00:00 4.6 7 Sur 13 Sudeste 0 1022.9 0 97
2019-12-06 08:00:00 5.1 8 Sur 11 Sur 0 1023.1 -0.3 97
2019-12-06 07:00:00 5.3 6 Sudoeste 11 Sudoeste 0 1023.1 -0.4 96
2019-12-06 06:00:00 6 8 Sudeste 13 Sur 0 1022.9 -0.7 96
2019-12-06 05:00:00 6 8 Sur 11 Sudeste 0 1023.4 -0.3 96
2019-12-06 04:00:00 6.6 8 Sudeste 11 Sudeste 0 1023.5 0 96
2019-12-06 03:00:00 6.7 9 Sur 15 Sur 0 1023.6 -0.2 96
2019-12-06 02:00:00 6.4 10 Sur 13 Sur 0 1023.7 -0.3 97
2019-12-06 01:00:00 6.4 8 Sur 11 Sudoeste 0 1023.5 -0.6 96
2019-12-06 00:00:00 7.3 3 Sur 8 Sudoeste 0 1023.8 -0.5 96
2019-12-05 23:00:00 7.8 4 Sur 9 Sudoeste 0 1024 -0.1 97
2019-12-05 22:00:00 6.7 9 Sur 9 Sur 0 1024.1 0.4 95
2019-12-05 21:00:00 7.3 6 Sur 9 Sur 0 1024.3 1.4 93
2019-12-05 20:00:00 9.2 7 Sur 11 Sur 0 1024.1 1.7 93
2019-12-05 19:00:00 10 3 Sur 8 Sur 0 1023.7 1.7 90
2019-12-05 18:00:00 10.9 5 Sur 11 Sur 0 1022.9 0.9 85
2019-12-05 17:00:00 13.3 8 Oeste 11 Oeste 0 1022.4 0.1 74
2019-12-05 16:00:00 14.1 4 Oeste 11 Oeste 0 1022 -0.6 70
2019-12-05 15:00:00 14.5 10 Oeste 15 Oeste 0 1022 -1.1 72
2019-12-05 14:00:00 13.8 4 Norte 11 Oeste 0 1022.3 -0.5 74
2019-12-05 13:00:00 12.9 4 Sudeste 9 Sudeste 0 1022.6 0.1 71
2019-12-05 12:00:00 11.8 4 Sur 11 Sudeste 0 1023.1 1.1 74
2019-12-05 11:00:00 11.7 7 Sur 9 Sur 0 1022.8 1.3 77
2019-12-05 10:00:00 9.8 8 Sur 13 Sur 0 1022.5 1.9 86
2019-12-05 09:00:00 8.3 7 Sur 11 Sur 0 1022 1.8 93
2019-12-05 08:00:00 8.2 6 Sur -- -- 0 1021.5 1.7 93
2019-12-05 07:00:00 8.1 5 Sur 9 Sur 0 1020.6 1.3 93
2019-12-05 06:00:00 8 6 Sur -- -- 0 1020.2 1.4 92
2019-12-05 05:00:00 8.1 4 Sur 8 Sur 0 1019.8 1.2 92
2019-12-05 04:00:00 8 7 Sur 9 Sur 0 1019.3 1.1 91
2019-12-05 03:00:00 7.9 0 Calma 8 Sur 0 1018.8 1.5 92
2019-12-05 02:00:00 7.8 7 Oeste 9 Oeste 0 1018.6 1.7 91
2019-12-05 01:00:00 8.2 5 Oeste 9 Oeste 0 1018.2 1.9 88
2019-12-05 00:00:00 8.4 6 Oeste 11 Oeste 0 1017.3 1.3 86
2019-12-04 23:00:00 8.7 6 Oeste 26 Sudoeste 0 1016.9 1.6 87
2019-12-04 22:00:00 8.6 11 Sudoeste 17 Sudoeste 0 1016.3 1.3 86
2019-12-04 21:00:00 7.9 8 Oeste 15 Oeste 0 1016 1.3 92
2019-12-04 20:00:00 8.4 4 Noroeste 11 Norte 0 1015.3 1.4 93
2019-12-04 19:00:00 8.7 0 Calma 9 Norte 0 1015 1.5 92
2019-12-04 18:00:00 9.1 4 Norte 24 Sudoeste 0 1014.7 1.5 89
2019-12-04 17:00:00 10.2 9 Oeste 22 Oeste 0 1013.9 0.7 82
2019-12-04 16:00:00 9.4 8 Sudoeste 21 Noroeste 0 1013.5 0.2 86
2019-12-04 15:00:00 8.9 9 Noroeste 17 Noroeste 0 1013.2 -0.7 89
2019-12-04 14:00:00 9 9 Noroeste 15 Norte 0 1013.2 -1.3 86
2019-12-04 13:00:00 8.4 4 Norte 8 Norte 0 1013.3 -0.9 83
2019-12-04 12:00:00 7.7 0 Calma 8 Sur 0 1013.9 0.2 83
2019-12-04 11:00:00 5.9 4 Sur 11 Sur 0 1014.5 0.7 90
2019-12-04 10:00:00 4.3 9 Sur 13 Sur 0 1014.2 0.7 97
2019-12-04 09:00:00 1.6 4 Sudoeste 9 Sudoeste 0 1013.7 0 98
2019-12-04 08:00:00 1.5 5 Sur 8 Sur 0 1013.8 -0.6 98
2019-12-04 07:00:00 1.6 6 Sur 9 Sudoeste 0 1013.5 -1.5 98
2019-12-04 06:00:00 0.9 4 Sur 5 Sur 0 1013.7 -1.9 98
2019-12-04 05:00:00 1.3 4 Sur 5 Sur 0 1014.4 -2 98
2019-12-04 04:00:00 1.5 4 Sudoeste 15 Sudoeste 0 1015 -2.2 98
2019-12-04 03:00:00 2.3 6 Sudoeste 9 Oeste 0 1015.6 -2 98
2019-12-04 02:00:00 1.3 5 Sur 9 Sur 0 1016.4 -1.6 97
2019-12-04 01:00:00 1.9 6 Sudoeste 8 Sudoeste 0 1017.2 -1 97
2019-12-04 00:00:00 1.9 0 Calma 5 Oeste 0 1017.6 -1 97
2019-12-03 23:00:00 2.5 3 Sudoeste 9 Sur 0 1018 -1 96
2019-12-03 22:00:00 2.8 8 Sur 11 Sur 0 1018.2 -0.8 95
2019-12-03 21:00:00 3.6 2 Oeste 5 Noroeste 0 1018.6 -0.3 95
2019-12-03 20:00:00 4.3 3 Sur 8 Sur 0 1019 0.1 93
2019-12-03 19:00:00 5.5 5 Oeste 17 Este 0 1019 0.1 90
2019-12-03 18:00:00 6.3 8 Este 13 Este 0 1018.9 -0.5 86
2019-12-03 17:00:00 7.2 8 Nordeste 9 Nordeste 0 1018.9 -1.1 81
2019-12-03 16:00:00 7.3 6 Nordeste 11 Nordeste 0 1018.9 -1.8 81
2019-12-03 15:00:00 6.8 4 Norte 9 Norte 0 1019.4 -2.4 83
2019-12-03 14:00:00 6.5 6 Nordeste 9 Nordeste 0 1020 -2.2 82
2019-12-03 13:00:00 6.1 7 Este 11 Este 0 1020.7 -1.5 84
2019-12-03 12:00:00 5.6 9 Nordeste 18 Este 0 1021.8 -0.5 88
2019-12-03 11:00:00 5.7 10 Este 15 Norte 0 1022.2 0 89
2019-12-03 10:00:00 6.3 12 Nordeste 15 Nordeste 0 1022.2 -0.1 86
2019-12-03 09:00:00 5.9 5 Norte 11 Nordeste 0 1022.3 -0.2 92
2019-12-03 08:00:00 5.9 5 Sudoeste 8 Oeste 0 1022.2 -0.7 93
2019-12-03 07:00:00 5.8 5 Sur 8 Sur 0 1022.3 -1 93
2019-12-03 06:00:00 5.6 7 Sur 9 Sur 0 1022.5 -0.9 93
2019-12-03 05:00:00 5.6 5 Nordeste 9 Nordeste 0 1022.9 -0.8 92
2019-12-03 04:00:00 5.8 6 Este 15 Este 0 1023.3 -0.8 92
2019-12-03 03:00:00 5.8 10 Este 15 Este 0 1023.4 -0.8 92
2019-12-03 02:00:00 5.9 9 Este 13 Este 0 1023.7 -0.5 91
2019-12-03 01:00:00 5.9 6 Este 9 Nordeste 0 1024.1 -0.3 92
2019-12-03 00:00:00 6.2 3 Oeste 11 Sudeste 0 1024.2 -0.3 93
2019-12-02 23:00:00 6.2 6 Sudeste 11 Sudeste 0 1024.2 -0.1 93
2019-12-02 22:00:00 6.4 6 Sudeste 15 Sudeste 0 1024.4 0.5 92
2019-12-02 21:00:00 6.5 3 Noroeste 9 Este 0 1024.5 0.9 92
2019-12-02 20:00:00 6.7 4 Este 9 Nordeste 0 1024.3 0.9 92
2019-12-02 19:00:00 6.8 4 Sudeste 15 Sudeste 0 1023.9 0.9 93
2019-12-02 18:00:00 7.5 7 Sudeste 17 Nordeste 0 1023.6 1.2 90
2019-12-02 17:00:00 7.6 13 Nordeste 21 Nordeste 0 1023.4 1.2 87
2019-12-02 16:00:00 7.5 11 Norte 22 Norte 0 1023 0.9 91
2019-12-02 15:00:00 7.8 11 Norte 30 Norte 0 1022.4 0.1 94
2019-12-02 14:00:00 8.8 15 Norte 24 Norte 0 1022.2 0.1 94
2019-12-02 13:00:00 9.4 14 Norte 24 Nordeste 0 1022.1 0.6 95
2019-12-02 12:00:00 9.9 15 Nordeste 22 Este -- 1022.3 1.4 94
2019-12-02 11:00:00 9.9 12 Este 21 Este 0 1022.1 1.7 92
2019-12-02 10:00:00 9.4 13 Este 18 Este 0 1021.5 1.7 95
2019-12-02 09:00:00 9.4 10 Este 13 Este 0.5 1020.9 1.6 96
2019-12-02 08:00:00 9.3 7 Este 15 Este 0 1020.4 1.7 96
2019-12-02 07:00:00 9.1 10 Este 13 Este 0 1019.8 1.1 98
2019-12-02 06:00:00 8.9 8 Nordeste 13 Este 0 1019.3 1 98
2019-12-02 05:00:00 8 5 Este 9 Este 0.2 1018.7 1 98
2019-12-02 04:00:00 7.2 2 Sudoeste 5 Sudoeste 0 1018.7 1.5 98
2019-12-02 03:00:00 6.9 4 Sudoeste 8 Sur 0 1018.3 1.7 98
2019-12-02 02:00:00 6 3 Sudoeste 9 Sudoeste 0 1017.7 1.3 97
2019-12-02 01:00:00 7.2 9 Sur 11 Sur 0 1017.2 1.5 97
2019-12-02 00:00:00 7.1 6 Sudoeste 9 Sur 0 1016.6 1.6 96
2019-12-01 23:00:00 7.2 6 Sur 9 Sudoeste 0 1016.4 2 96
2019-12-01 22:00:00 8 6 Sur 9 Sur 0 1015.7 2 95
2019-12-01 21:00:00 8.3 6 Sur 9 Sur 0 1015 2 91
2019-12-01 20:00:00 9.3 5 Sudoeste -- -- 0 1014.4 1.9 92
2019-12-01 19:00:00 10.5 8 Sur 11 Sur 0 1013.7 1.6 88
2019-12-01 18:00:00 11.7 8 Sur 9 Sur 0 1013 1.1 83
2019-12-01 17:00:00 14 4 Oeste 9 Noroeste 0 1012.5 0.5 68
2019-12-01 16:00:00 14.8 8 Noroeste 17 Noroeste 0 1012.1 0 62
2019-12-01 15:00:00 15.2 10 Noroeste 17 Norte 0 1011.9 -0.3 61
2019-12-01 14:00:00 14.6 6 Norte 11 Norte 0 1012 -0.3 63
2019-12-01 13:00:00 12.8 5 Sur 5 Sur 0 1012.1 0.3 75
2019-12-01 12:00:00 9.6 3 Sudoeste -- -- 0 1012.2 1.1 94
2019-12-01 11:00:00 7.7 4 Sur 9 Sudoeste 0 1012.3 1.7 99
2019-12-01 10:00:00 6.1 6 Sudoeste 11 Sudoeste 0 1011.8 1.6 99
2019-12-01 09:00:00 5.3 4 Sudoeste 11 Sur 0 1011.1 1.3 99
2019-12-01 08:00:00 4.9 3 Sur 11 Sudoeste 0 1010.6 0.5 99
2019-12-01 07:00:00 4.8 11 Sur 13 Sur 0 1010.2 -0.6 98
2019-12-01 06:00:00 5.2 9 Oeste 13 Sudoeste 0 1009.8 -1.5 98
2019-12-01 05:00:00 5.8 5 Oeste 13 Sudoeste 0 1010.1 -1.7 98
2019-12-01 04:00:00 6.2 9 Sudoeste 13 Sudoeste 0 1010.8 -1.6 98
2019-12-01 03:00:00 6 5 Sudoeste 11 Sur 0 1011.3 -1.5 97
2019-12-01 02:00:00 7 5 Sudoeste 11 Sur 0 1011.8 -1 97
2019-12-01 01:00:00 7.8 8 Sur 11 Sur 0 1012.4 -1 96
2019-12-01 00:00:00 8.9 8 Sur 15 Sur 0 1012.8 -0.4 95
2019-11-30 23:00:00 9 10 Sur 17 Sur 0 1012.8 -0.4 96
2019-11-30 22:00:00 9.3 12 Sur 13 Sur 0 1013.4 -0.2 95
2019-11-30 21:00:00 10.3 13 Sur 18 Sur 0 1013.2 -0.4 94
2019-11-30 20:00:00 11 10 Sur 15 Sur 0 1013.2 -1 94
2019-11-30 19:00:00 11.2 11 Sudoeste 15 Sudoeste 0.2 1013.6 -0.1 96
2019-11-30 18:00:00 11.4 10 Sudoeste 13 Sudoeste 1 1013.6 -0.5 96
2019-11-30 17:00:00 11.6 10 Sudoeste 18 Oeste 2.7 1014.2 -0.4 95
2019-11-30 16:00:00 11.9 10 Sudoeste 17 Sudoeste 2.8 1013.7 -1.3 95
2019-11-30 15:00:00 12.1 10 Sudoeste 22 Sur 1.9 1014.1 -0.5 95
2019-11-30 14:00:00 12.5 11 Sur 41 Oeste 2.5 1014.6 1.8 93
2019-11-30 13:00:00 12.8 16 Oeste 55 Oeste 4.4 1015 2.9 94
2019-11-30 12:00:00 15.1 31 Oeste 46 Oeste 1.2 1014.6 2.7 89
2019-11-30 11:00:00 16.5 10 Sur 21 Sur 0 1012.8 0.4 70
2019-11-30 10:00:00 16.8 16 Sudeste 33 Sur 0 1012.1 -0.6 63
2019-11-30 09:00:00 16.8 25 Sur 37 Sur 0 1011.9 -1 65
2019-11-30 08:00:00 15.1 22 Sur 28 Sur 0.2 1012.4 -1.4 75
2019-11-30 07:00:00 14.3 17 Sudoeste 24 Sudoeste 0 1012.7 -2.1 74
2019-11-30 06:00:00 9.3 8 Sudoeste 13 Sur 0 1012.9 -2.9 97
2019-11-30 05:00:00 8.1 8 Oeste 11 Oeste 0 1013.8 -2.8 98
2019-11-30 04:00:00 7.7 11 Sudoeste 15 Sudoeste 0 1014.8 -2.7 98
2019-11-30 03:00:00 7.4 6 Oeste 9 Oeste 0 1015.8 -2.6 97
2019-11-30 02:00:00 8.3 9 Sudoeste 13 Sudoeste 0 1016.6 -2.3 97
2019-11-30 01:00:00 8.7 0 Calma 11 Sudoeste 0 1017.5 -1.7 97
2019-11-30 00:00:00 9 2 Sudoeste 8 Sur 0 1018.4 -1.2 96
2019-11-29 23:00:00 9.6 6 Sur 13 Sudoeste 0 1018.9 -0.8 95
2019-11-29 22:00:00 9.9 5 Sudoeste 9 Sur 0 1019.2 -0.5 94
2019-11-29 21:00:00 10.9 0 Calma 5 Sudoeste 0 1019.6 0 91
2019-11-29 20:00:00 10.9 0 Calma 8 Sudeste 0 1019.7 0.5 92
2019-11-29 19:00:00 11.8 5 Sur 13 Sur 0 1019.7 0.6 90
2019-11-29 18:00:00 13.7 5 Nordeste 11 Nordeste 0 1019.6 0.5 86
2019-11-29 17:00:00 15.2 -- -- -- -- 0 1019.2 -0.4 78
2019-11-29 16:00:00 16.8 9 Nordeste 13 Nordeste 0 1019.1 -0.7 68
2019-11-29 15:00:00 17.6 5 Noroeste 15 Oeste 0 1019.1 -1 65
2019-11-29 14:00:00 16.7 9 Oeste 17 Oeste 0 1019.6 -0.4 70
2019-11-29 13:00:00 17.1 10 Oeste 17 Oeste 0 1019.8 0.6 68
2019-11-29 12:00:00 15.8 7 Sudoeste 17 Sudoeste 0 1020.1 1.4 77
2019-11-29 11:00:00 14.1 11 Sudoeste 15 Sudoeste 0 1020 2.2 87
2019-11-29 10:00:00 13.7 13 Sudoeste 18 Sudoeste 0 1019.2 2.3 91
2019-11-29 09:00:00 13.1 9 Sudoeste 15 Sudoeste 0 1018.7 2.5 93
2019-11-29 08:00:00 12.9 8 Sudoeste 15 Sudoeste 0 1017.8 2.3 93
2019-11-29 07:00:00 13.3 8 Sudoeste 17 Sudoeste 0 1016.9 2.1 93
2019-11-29 06:00:00 13.1 10 Sudoeste 18 Sudoeste 0 1016.2 2.1 95
2019-11-29 05:00:00 13.8 13 Sudoeste 32 Oeste 0.4 1015.5 2.1 92
2019-11-29 04:00:00 13.3 14 Oeste 24 Sudoeste 0.2 1014.8 1.9 94
2019-11-29 03:00:00 12.4 12 Sudoeste 21 Sudoeste 0.1 1014.1 2.2 98
2019-11-29 02:00:00 11.4 9 Sur -- -- 0.5 1013.4 2.1 98
2019-11-29 01:00:00 10.9 9 Sudoeste 11 Sudoeste 0.1 1012.9 1.9 98
2019-11-29 00:00:00 10.7 5 Sudoeste 8 Sudoeste 0.1 1011.9 0.5 97
2019-11-28 23:00:00 10.6 5 Sudoeste 8 Sudoeste 0 1011.3 -0.5 97
2019-11-28 22:00:00 10.8 5 Sudoeste 17 Sudeste 0 1011 -0.4 95
2019-11-28 21:00:00 11.5 0 Calma 13 Sur 0 1011.4 -0.6 96
2019-11-28 20:00:00 11.8 7 Sur 11 Sur 0.6 1011.8 0.4 94
2019-11-28 19:00:00 12.1 10 Sur 24 Sur 0.7 1011.4 1.3 92
2019-11-28 18:00:00 12.6 9 Sur 21 Noroeste 2.2 1012 1.7 90
2019-11-28 17:00:00 12.8 12 Noroeste 24 Noroeste 2.1 1011.4 0.5 91
2019-11-28 16:00:00 14 3 Norte 9 Noroeste 0.2 1010.1 -1.5 85
2019-11-28 15:00:00 14.7 3 Sur 8 Sudoeste 0 1010.3 -2.1 75
2019-11-28 14:00:00 14.7 6 Sur 9 Sudoeste 0 1010.9 -1.7 77
2019-11-28 13:00:00 14.7 7 Sudoeste 13 Sudoeste 0 1011.6 -0.5 78
2019-11-28 12:00:00 14.3 9 Sudoeste 18 Sudoeste 0 1012.4 1.1 81
2019-11-28 11:00:00 13.8 13 Sudoeste 32 Oeste 0 1012.6 2 82
2019-11-28 10:00:00 13.9 19 Oeste 35 Sudoeste 0 1012.1 2 80
2019-11-28 09:00:00 13.3 18 Oeste 28 Oeste 0.1 1011.3 1.8 84
2019-11-28 08:00:00 12.5 16 Sudoeste 24 Sudoeste 0.4 1010.6 1.7 90
2019-11-28 07:00:00 12.4 9 Sudoeste 24 Oeste 0.7 1010.1 2.1 92
2019-11-28 06:00:00 13.4 14 Oeste 24 Oeste 0.7 1009.5 1.7 84
2019-11-28 05:00:00 12.8 13 Noroeste 21 Oeste 0.6 1008.9 1.3 85
2019-11-28 04:00:00 11.4 8 Sur 11 Sur 0 1008 0.1 92
2019-11-28 03:00:00 12.1 2 Oeste 15 Oeste 0 1007.8 -0.2 86
2019-11-28 02:00:00 13 9 Sudoeste 17 Sudoeste 0 1007.6 -0.4 81
2019-11-28 01:00:00 11.5 9 Sur 11 Sur 0 1007.9 0.1 95
2019-11-28 00:00:00 11.4 9 Sur 11 Sudoeste 0 1008 -0.2 95
2019-11-27 23:00:00 11.8 6 Sur 9 Sur 0 1008 0.2 92
2019-11-27 22:00:00 12.5 8 Sur 15 Sudoeste 0 1007.8 -0.4 88
2019-11-27 21:00:00 13.5 13 Sudoeste 24 Sudoeste 0 1008.2 0.1 80
2019-11-27 20:00:00 12.6 11 Sudoeste 21 Sur 0.1 1007.8 1.2 88
2019-11-27 19:00:00 13 17 Sur 26 Oeste 0.9 1008.2 2.2 88
2019-11-27 18:00:00 13.9 20 Oeste 39 Noroeste 0.6 1008.1 2.5 79
2019-11-27 17:00:00 17 16 Sudoeste 28 Sudoeste 0 1006.6 0.7 53
2019-11-27 16:00:00 17.4 16 Sudoeste 30 Sudoeste 0 1006 -0.7 51
2019-11-27 15:00:00 17.8 11 Sudoeste 26 Sudoeste 0 1005.6 -2 49
2019-11-27 14:00:00 18.1 18 Sudoeste 32 Sudoeste 0 1005.9 -1.6 47
2019-11-27 06:00:00 10.9 8 Sudoeste 11 Sudoeste 0 1004.2 1.9 94
2019-11-27 05:00:00 10.8 7 Oeste 17 Sudeste 0 1003.5 1.6 96
2019-11-27 04:00:00 10.7 5 Sudoeste 9 Oeste 0 1002.9 1.5 94
2019-11-27 03:00:00 11.5 8 Sur 13 Sudeste 0 1002.3 0.9 94
2019-11-27 02:00:00 12 8 Sur 13 Sur 0 1001.9 -0.3 94
2019-11-27 01:00:00 12.6 4 Oeste 8 Sur 0 1001.4 1.9 91
2019-11-27 00:00:00 13.5 7 Sur 21 Sur 0 1001.4 2.4 89
2019-11-26 23:00:00 14.6 16 Sudoeste 55 Noroeste 0 1002.2 3.7 84
2019-11-26 22:00:00 20.6 27 Sudoeste 52 Sudoeste 0 999.5 1 45
2019-11-26 21:00:00 19.8 36 Sur 55 Sur 0 999 -0.5 56
2019-11-26 20:00:00 20.2 33 Sur 48 Sur 0 998.5 -2.1 54
2019-11-26 19:00:00 20.2 24 Sur 37 Sur 0 998.5 -3.2 53
2019-11-26 18:00:00 19.8 24 Sudoeste 42 Sur 0 999.5 -3.2 56
2019-11-26 17:00:00 18.4 12 Sur 22 Sur 0 1000.6 -2.6 62
2019-11-26 16:00:00 19.4 16 Sur 24 Sudoeste 0 1001.7 -1.8 56
2019-11-26 15:00:00 19.8 10 Sudeste 46 Sudoeste 0 1002.7 -1.7 52
2019-11-26 14:00:00 21 32 Sudoeste 58 Sur 0 1003.2 -1.9 50
2019-11-26 13:00:00 21.1 30 Sur 42 Sudoeste 0 1003.5 -2.2 52
2019-11-26 12:00:00 20.6 15 Sur 33 Sudoeste 0 1004.4 -1.6 54
2019-11-26 11:00:00 18.9 16 Sudeste 24 Sudeste 0 1005.1 -0.7 57
2019-11-26 10:00:00 17.3 14 Sur 18 Sur 0 1005.7 -0.3 65
2019-11-26 09:00:00 15.1 16 Sur 22 Sur 0 1006 -0.6 67
2019-11-26 08:00:00 14.4 16 Sur 22 Sur 0 1005.8 -1.5 68
2019-11-26 07:00:00 13 14 Sur 21 Sur 0 1006 -1.7 73
2019-11-26 06:00:00 10.4 12 Sur 15 Sur 0 1006.6 -1.9 97
2019-11-26 05:00:00 8.6 7 Sur 13 Sudoeste 0 1007.3 -1.9 99
2019-11-26 04:00:00 8.6 9 Sudoeste 13 Sudoeste 0 1007.7 -2.5 98
2019-11-26 03:00:00 8.6 7 Sur 11 Noroeste 0 1008.5 -2.1 98
2019-11-26 02:00:00 8.7 6 Sudoeste 11 Sur 0 1009.2 -2.1 97
2019-11-26 01:00:00 9.7 6 Sudoeste 8 Sudoeste 0 1010.2 -1.9 97
2019-11-26 00:00:00 10.6 2 Oeste 9 Sudoeste 0 1010.6 -1.9 96
2019-11-25 23:00:00 11.5 9 Sudeste 13 Sudeste 0 1011.3 -1.3 95
2019-11-25 22:00:00 12.6 3 Oeste 8 Oeste 0 1012.1 -0.4 93
2019-11-25 21:00:00 13.4 -- -- -- -- 0 1012.5 0.2 93
2019-11-25 20:00:00 14 3 Sudoeste 8 Sur 0 1012.6 0.5 90
2019-11-25 19:00:00 14.5 -- -- -- -- 0 1012.5 0.8 87
2019-11-25 18:00:00 15.3 2 Sudoeste 9 Sudoeste 0 1012.3 0.8 82
2019-11-25 17:00:00 15.8 5 Oeste 9 Oeste 0 1012.1 0.9 77
2019-11-25 16:00:00 16.4 2 Este 9 Oeste 0 1011.7 1 75
2019-11-25 15:00:00 15.9 2 Sudeste 15 Oeste 0 1011.5 1 80
2019-11-25 14:00:00 16.1 8 Noroeste 26 Noroeste 0 1011.2 0.5 77
2019-11-25 13:00:00 17.8 13 Noroeste 24 Noroeste 0 1010.7 0.4 68
2019-11-25 12:00:00 17 5 Sur 11 Sudeste 0 1010.5 0.5 69
2019-11-25 11:00:00 15.6 6 Noroeste 13 Sudeste 0 1010.7 1.6 74
2019-11-25 10:00:00 13.3 3 Sur 15 Sur 0 1010.3 2.2 81
2019-11-25 09:00:00 11.6 11 Sur 18 Sur 0 1010 3.1 86
2019-11-25 08:00:00 12.3 10 Sur 18 Sur 0 1009.1 2.2 84
2019-11-25 07:00:00 11.2 12 Sur 18 Sudeste 0 1008.1 1.4 87
2019-11-25 06:00:00 12 16 Sudeste 21 Sudeste 0 1006.9 -0.5 82
2019-11-25 05:00:00 11.7 16 Sudeste 21 Sudeste 0 1006.9 -0.7 83
2019-11-25 04:00:00 11.1 16 Sudeste 18 Sudeste 0 1006.7 -1.3 89
2019-11-25 03:00:00 12.1 12 Sur 18 Sur 0 1007.4 -0.5 86
2019-11-25 02:00:00 11 11 Sur 15 Sur 0 1007.6 -1.7 93
2019-11-25 01:00:00 11.2 11 Sur 22 Sur 0 1008 -0.6 90
2019-11-25 00:00:00 9.9 0 Calma 18 Sudeste 0.5 1007.9 0.3 95
2019-11-24 23:00:00 10.7 10 Sur 18 Sur 2.2 1009.3 0.9 89
2019-11-24 22:00:00 9.5 7 Sudoeste 11 Sudoeste 0 1008.6 -0.4 93
2019-11-24 21:00:00 9.3 8 Sur 13 Sur 0 1007.6 -1.6 92
2019-11-24 20:00:00 9.1 6 Sur 13 Sur 0 1008.4 -2 93
2019-11-24 19:00:00 9.1 7 Sur 18 Sur 0 1009 -1.6 92
2019-11-24 18:00:00 11.1 6 Sur 9 Sur 0 1009.2 -2 87
2019-11-24 17:00:00 13.3 4 Sudoeste 9 Oeste 0 1010.4 -1 75
2019-11-24 16:00:00 13.9 6 Sur 15 Oeste 0 1010.6 -1.2 70
2019-11-24 15:00:00 14.1 14 Sudoeste 32 Sudoeste 0 1011.2 -1.3 67
2019-11-24 14:00:00 14.5 19 Sudoeste 28 Oeste 0 1011.4 -1.1 71
2019-11-24 13:00:00 13 12 Sudoeste 17 Oeste 0 1011.8 -0.5 83
2019-11-24 12:00:00 11.1 8 Sur 18 Oeste 0.9 1012.5 1 93
2019-11-24 11:00:00 10.6 12 Sudoeste 17 Sudoeste 1.1 1012.5 1.7 94
2019-11-24 10:00:00 10.5 11 Sudoeste 22 Sudoeste 1.8 1012.3 1.8 92
2019-11-24 09:00:00 10.3 17 Sudoeste 30 Sudoeste 0.3 1011.5 1.7 91
2019-11-24 08:00:00 10.7 19 Sudoeste 37 Sudoeste 0.6 1010.8 1.8 90
2019-11-24 07:00:00 10.7 11 Sudoeste 32 Sudoeste 3.7 1010.5 1.7 90
2019-11-24 06:00:00 10.4 10 Oeste 21 Sudoeste 5.5 1009.8 2 90
2019-11-24 05:00:00 9.7 13 Sudoeste 35 Sudoeste 1.7 1009 1.2 92
2019-11-24 04:00:00 10 18 Sudoeste 32 Oeste 7.4 1008.8 1 90
2019-11-24 03:00:00 9.4 20 Sudoeste 35 Sudoeste 0.2 1007.8 0.6 90
2019-11-24 02:00:00 9.6 18 Sudoeste 42 Oeste 1.6 1007.8 0.5 91
2019-11-24 01:00:00 9.8 20 Sudoeste 33 Sudoeste 5.9 1007.8 1 90
2019-11-24 00:00:00 10.8 15 Oeste 45 Oeste 5.1 1007.2 1.5 87
2019-11-23 23:00:00 10.7 25 Sudoeste 48 Sudoeste 3.8 1007.3 2.1 88
2019-11-23 22:00:00 10.6 12 Sudoeste 41 Oeste 5.5 1006.8 3 87
2019-11-23 21:00:00 10.8 18 Sudoeste 45 Sudoeste 3.1 1005.7 2.7 89
2019-11-23 20:00:00 11.3 18 Oeste 45 Oeste 4.8 1005.2 3.5 87
2019-11-23 19:00:00 12.7 21 Oeste 45 Oeste 0.1 1003.8 3.5 76
2019-11-23 18:00:00 11.7 28 Oeste 50 Noroeste 3.2 1003 3.8 81
2019-11-23 17:00:00 13.2 24 Noroeste 72 Noroeste 0.1 1001.7 3.4 74
2019-11-23 16:00:00 12.6 28 Oeste 65 Oeste 0.6 1000.3 3 73
2019-11-23 15:00:00 13.6 24 Oeste 52 Oeste 0 999.2 3.1 67
2019-11-23 14:00:00 14 30 Oeste 67 Noroeste 0 998.3 3.8 60
2019-11-23 13:00:00 13.7 35 Oeste 78 Noroeste 0 997.3 5.6 61
2019-11-23 12:00:00 12.7 36 Oeste 82 Noroeste 1.3 996.1 6 68
2019-11-23 11:00:00 11.9 35 Oeste 76 Oeste 2.9 994.5 6.1 85
2019-11-23 10:00:00 11.9 26 Oeste 76 Sudoeste 10.7 991.7 4 91
2019-11-23 09:00:00 12.5 28 Oeste 87 Oeste 3.9 990.1 3.4 90
2019-11-23 08:00:00 10.5 33 Sudoeste 67 Oeste 7 988.4 2.7 94
2019-11-23 07:00:00 10.7 24 Sudoeste 32 Oeste 2.6 987.7 3 87
2019-11-23 06:00:00 11.9 21 Sudoeste 30 Sudoeste 0.8 986.7 2.5 79
2019-11-23 05:00:00 13 17 Sudoeste 39 Oeste 0.2 985.7 1.7 71
2019-11-23 04:00:00 14.9 20 Sudoeste 46 Sudoeste 0 984.7 1 51
2019-11-23 03:00:00 14.9 18 Sudoeste 32 Sudoeste 0 984.2 0.6 51
2019-11-23 02:00:00 15.1 17 Sudoeste 35 Sudoeste 0 984 0.4 51
2019-11-23 01:00:00 16.1 28 Sudoeste 41 Sudoeste 0 983.7 -0.2 49
2019-11-23 00:00:00 16.1 28 Sudoeste 50 Sudoeste 0 983.6 -0.3 49
2019-11-22 23:00:00 15.9 32 Sur 48 Sudoeste 0 983.6 -1.1 50
2019-11-22 22:00:00 16.2 28 Sur 50 Sur 0 983.9 -0.8 53
2019-11-22 21:00:00 14 22 Sur 45 Sur 0 983.9 -0.2 69
2019-11-22 20:00:00 15.6 23 Sur 67 Sur 0 984.7 0.1 57
2019-11-22 19:00:00 15.5 40 Sur 61 Sur 0 984.7 0 64
2019-11-22 18:00:00 16.4 24 Sur 58 Sur 0 984.1 -1.3 55
2019-11-22 17:00:00 16.6 37 Sur 55 Sur 0 984.6 -2.1 54
2019-11-22 16:00:00 15.6 24 Sudoeste 67 Sur 0 984.7 -3.8 58
2019-11-22 15:00:00 16 32 Sur 63 Sur 0 985.4 -4.7 53
2019-11-22 14:00:00 15.6 33 Sur 63 Sur 0 986.7 -5.5 53
2019-11-22 13:00:00 15.9 32 Sur 54 Sudeste 0 988.5 -4.6 52
2019-11-22 12:00:00 15.3 27 Sur 65 Sudeste 0 990.1 -4.7 52
2019-11-22 11:00:00 14.7 32 Sur 59 Sur 0 992.2 -3.9 54
2019-11-22 10:00:00 14.7 28 Sur 54 Sur 0 993.1 -3.9 52
2019-11-22 09:00:00 14.2 30 Sur 45 Sur 0 994.8 -3.5 54
2019-11-22 08:00:00 14 24 Sur 39 Sur 0 996.1 -3.5 52
2019-11-22 07:00:00 13.5 19 Sur 45 Sur 0 997 -3.5 54
2019-11-22 06:00:00 12.9 10 Sur 35 Sudeste 0 998.3 -3 57
2019-11-22 05:00:00 12.8 22 Sur 32 Sur 0 999.6 -2.4 58
2019-11-22 04:00:00 12.3 13 Sur 30 Sur 0 1000.5 -2.6 60
2019-11-22 03:00:00 11.6 13 Sur 32 Sur 0 1001.3 -2.4 63
2019-11-22 02:00:00 11.5 18 Sur 26 Sur 0 1002 -2.3 63
2019-11-22 01:00:00 8.2 10 Sur 18 Sur 0 1003.1 -1.4 81
2019-11-22 00:00:00 7.3 10 Sur 15 Sur 0 1003.7 -1.2 89
2019-11-21 23:00:00 6.5 5 Sudoeste 13 Sudoeste 0 1004.3 -0.5 91
2019-11-21 22:00:00 7.3 4 Sudoeste 9 Sur 0 1004.5 -0.1 86
2019-11-21 21:00:00 7.9 7 Sudoeste 11 Sur 0 1004.9 0.6 86
2019-11-21 20:00:00 8.2 4 Sudoeste 9 Sudoeste 0 1004.8 0.7 83
2019-11-21 19:00:00 9.6 8 Sur -- -- 0 1004.6 0.8 79
2019-11-21 18:00:00 12.3 7 Sudoeste 17 Sudoeste 0 1004.3 0.8 65
2019-11-21 17:00:00 14.5 14 Sudoeste 24 Sur 0 1004.1 0.7 52
2019-11-21 16:00:00 15.4 18 Sur 30 Sudoeste 0 1003.8 0 49
2019-11-21 15:00:00 15.2 23 Sudoeste 33 Sudoeste 0 1003.5 -0.7 50
2019-11-21 14:00:00 15.6 17 Sudoeste 37 Sudoeste 0 1003.4 -0.9 49
2019-11-21 13:00:00 16.1 22 Sudoeste 33 Sudoeste 0 1003.8 -0.3 47
2019-11-21 12:00:00 15.5 23 Sudoeste 32 Sudoeste 0 1004.2 0.1 47
2019-11-21 11:00:00 14.4 19 Sur 32 Sudoeste 0 1004.3 0.9 51
2019-11-21 10:00:00 13.2 20 Sudoeste 30 Sur 0 1004.1 0.8 56
2019-11-21 09:00:00 11.1 14 Sudoeste 30 Sur 0 1004.1 0.7 64
2019-11-21 08:00:00 10.7 18 Sudoeste 26 Sudoeste 0 1003.4 -0.2 64
2019-11-21 07:00:00 11.3 13 Sur 33 Sur 0 1003.3 -0.1 61
2019-11-21 06:00:00 11.3 21 Sudoeste 33 Sur 0 1003.4 0 61
2019-11-21 05:00:00 10.5 16 Sur 22 Sur 0 1003.6 0 68
2019-11-21 04:00:00 10.8 16 Sur 32 Sudoeste 0 1003.4 -0.8 66
2019-11-21 03:00:00 10.8 27 Sur 35 Sudoeste 0 1003.4 -1.2 67
2019-11-21 02:00:00 11.1 16 Sur 28 Sur 0 1003.6 -1.1 66
2019-11-21 01:00:00 11.5 14 Sur 32 Sudoeste 0 1004.2 -0.3 64
2019-11-21 00:00:00 11.6 13 Sur 21 Sur 0 1004.6 -0.2 64
2019-11-20 23:00:00 12.3 15 Sur 28 Sur 0.1 1004.7 -0.2 60
2019-11-20 22:00:00 12.7 14 Sur 24 Sur 0 1004.5 0 55
2019-11-20 21:00:00 10.4 0 Calma 5 Oeste 0.1 1004.8 0.3 83
2019-11-20 20:00:00 11 6 Sur 11 Sur 0 1004.9 0.6 78
2019-11-20 19:00:00 11.9 4 Oeste 22 Sudeste 0 1004.5 0.5 70
2019-11-20 18:00:00 13 7 Oeste 13 Oeste 0 1004.5 0.1 55
2019-11-20 17:00:00 14.1 12 Sudeste 32 Sudeste 0 1004.3 -0.8 49
2019-11-20 16:00:00 14.5 21 Sur 32 Sur 0 1004 -1.9 47
2019-11-20 15:00:00 15 19 Sur 28 Sur 0 1004.4 -2.4 44
2019-11-20 14:00:00 14.4 12 Sur 18 Sudoeste 0 1005.1 -2.3 46
2019-11-20 13:00:00 14 10 Sur 22 Sur 0 1005.9 -1.9 48
2019-11-20 12:00:00 13 18 Sur 30 Sur 0 1006.8 -1.1 50
2019-11-20 11:00:00 12 15 Sur 28 Sudeste 0 1007.4 -0.4 53
2019-11-20 10:00:00 11.3 15 Sur -- -- -- 1007.8 -0.3 55
2019-11-20 09:00:00 8.8 13 Sur 17 Sur 0 1007.9 -0.5 67
2019-11-20 08:00:00 7.9 13 Sur 17 Sur 0 1007.8 -1.2 71
2019-11-20 07:00:00 5.2 12 Sur 15 Sur 0 1008.1 -1.6 92
2019-11-20 06:00:00 2.8 5 Sudoeste 11 Sur 0 1008.4 -1.8 97
2019-11-20 05:00:00 2.9 5 Oeste 9 Sudoeste 0 1009 -1.5 96
2019-11-20 04:00:00 3.4 5 Sudoeste 13 Sudoeste 0 1009.7 -1.7 96
2019-11-20 03:00:00 2.9 7 Sur 11 Sur 0 1010.2 -1.7 96
2019-11-20 02:00:00 2.8 7 Sudoeste 9 Sudoeste 0 1010.5 -1.9 96
2019-11-20 01:00:00 3.7 6 Sudoeste -- -- 0 1011.4 -1.4 96
2019-11-20 00:00:00 4.6 8 Sur -- -- 0 1011.9 -1 96
2019-11-19 23:00:00 4.7 6 Sudoeste 8 Sur 0 1012.4 -0.6 94
2019-11-19 22:00:00 5.5 4 Sudoeste 9 Sur 0 1012.8 -0.6 93
2019-11-19 21:00:00 6.1 9 Sur 9 Sur 0 1012.9 -0.8 90
2019-11-19 20:00:00 7.5 6 Nordeste 11 Este 0 1013 -1 83
2019-11-19 19:00:00 8.2 4 Oeste 13 Sur 0 1013.4 -1.1 81
2019-11-19 18:00:00 9.3 9 Este 15 Este 0 1013.7 -1.2 72
2019-11-19 17:00:00 10.8 10 Este 17 Este 0 1014 -1.4 65
2019-11-19 16:00:00 11.7 14 Este 21 Nordeste 0 1014.5 -1.6 60
2019-11-19 15:00:00 11.9 13 Nordeste 18 Nordeste 0 1014.9 -2.2 60
2019-11-19 14:00:00 11.6 11 Nordeste 15 Nordeste 0 1015.4 -2.3 63
2019-11-19 13:00:00 11 2 Sur 5 Sur 0 1016.1 -1.7 67
2019-11-19 12:00:00 10 3 Este 9 Sur 0 1017.1 -0.9 76
2019-11-19 11:00:00 8.3 4 Sudeste 13 Sudeste 0 1017.7 -0.2 81
2019-11-19 10:00:00 6.6 8 Sur 13 Sur 0 1017.8 0.3 94
2019-11-19 09:00:00 4.1 6 Sur 9 Sur 0 1018 0.2 97
2019-11-19 08:00:00 4.1 8 Sur 9 Sur 0 1017.9 0.1 96
2019-11-19 07:00:00 4.8 7 Sur 11 Sur 0 1017.5 -0.6 95
2019-11-19 06:00:00 5.5 5 Sur 13 Sudeste 0 1017.8 -0.4 93
2019-11-19 05:00:00 6.3 12 Sudeste 15 Sudeste 0 1017.8 -0.5 94
2019-11-19 04:00:00 6.7 8 Sudeste 9 Sudeste 0.1 1018.1 -0.4 94
2019-11-19 03:00:00 6.9 6 Sur 11 Sudeste 0.6 1018.2 -0.6 93
2019-11-19 02:00:00 7.1 8 Sur -- -- -- 1018.3 -0.7 93
2019-11-19 01:00:00 6.8 9 Sur 13 Sudeste 0 1018.5 -0.5 93
2019-11-19 00:00:00 6.9 10 Sudeste 13 Sudeste 0 1018.8 -0.1 92
2019-11-18 23:00:00 6 8 Sur 11 Sudeste 0 1019 0.3 93
2019-11-18 22:00:00 6.8 5 Sur 9 Sur 0 1019 0.7 89
2019-11-18 21:00:00 6.1 8 Sur 9 Sur 0 1018.9 0.8 92
2019-11-18 20:00:00 7.2 6 Sur 11 Sudeste 0 1018.7 1.1 88
2019-11-18 19:00:00 8 8 Sudoeste 13 Sur 0 1018.3 1.2 83
2019-11-18 18:00:00 8.8 2 Sudoeste 13 Sudeste 0 1018.1 1.4 75
2019-11-18 17:00:00 9.8 2 Nordeste 5 Este 0 1017.6 1 61
2019-11-18 16:00:00 10.2 2 Sur 9 Norte 0 1017.1 0.5 58
2019-11-18 15:00:00 10.2 4 Noroeste 9 Norte 0 1016.7 0 59
2019-11-18 14:00:00 10.2 4 Nordeste 13 Norte 0 1016.6 0 58
2019-11-18 13:00:00 10.1 0 Calma 11 Este 0 1016.6 0.7 59
2019-11-18 12:00:00 9.5 3 Nordeste 8 Oeste 0 1016.7 1.7 70
2019-11-18 11:00:00 7.9 5 Sur 8 Sur 0 1016.6 2.5 85
2019-11-18 10:00:00 7.1 0 Calma 9 Sudeste 0 1015.9 2.1 92
2019-11-18 09:00:00 6.4 3 Sur 17 Sudeste 0.1 1015 2.3 94
2019-11-18 08:00:00 6.7 2 Sur 11 Este 0.1 1014.1 1.9 91
2019-11-18 07:00:00 7.4 9 Este 13 Este 0.4 1013.8 2.3 88
2019-11-18 06:00:00 7.8 5 Sur 8 Sur 0 1012.7 1.9 93
2019-11-18 05:00:00 8.1 5 Sudoeste 11 Este 0 1012.2 2.2 91
2019-11-18 04:00:00 8.7 11 Este 24 Nordeste 0.4 1011.5 1.8 90
2019-11-18 03:00:00 9.2 9 Norte 17 Norte 0.6 1010.8 1.9 92
2019-11-18 02:00:00 9.9 11 Nordeste -- -- -- 1010 2.2 84
2019-11-18 01:00:00 10.3 17 Norte 28 Norte 0 1009.7 2.2 88
2019-11-18 00:00:00 9.9 13 Norte 30 Norte 1.8 1008.9 1.6 91
2019-11-17 23:00:00 9.7 6 Oeste 24 Oeste 0.8 1007.8 0.7 93
2019-11-17 22:00:00 10 14 Oeste 48 Oeste 2.9 1007.5 0.3 91
2019-11-17 21:00:00 10.1 23 Oeste 45 Oeste 8.4 1007.3 0.4 89
2019-11-17 20:00:00 10.4 18 Oeste 35 Oeste 4.8 1007.1 -0.2 86
2019-11-17 19:00:00 10.4 17 Oeste 39 Sudoeste 1.3 1007.2 0.1 86
2019-11-17 18:00:00 10 15 Sudoeste 28 Sudoeste 1.4 1006.9 -0.1 94
2019-11-17 17:00:00 10.3 15 Sudoeste 32 Sudoeste 2.8 1007.3 -0.1 92
2019-11-17 16:00:00 11 20 Sudoeste 35 Sudoeste 0.6 1007.1 -0.8 89
2019-11-17 15:00:00 10.4 17 Sudoeste 24 Sudoeste 0.4 1007 -1.4 91
2019-11-17 14:00:00 10.2 14 Sudoeste 24 Sudoeste 0.5 1007.4 -1.4 92
2019-11-17 13:00:00 10.7 15 Sudoeste 22 Sudoeste 0.7 1007.9 -1 90
2019-11-17 12:00:00 10 9 Sudoeste 22 Sudoeste 0.4 1008.4 -0.6 87
2019-11-17 11:00:00 10.6 12 Sudoeste 18 Sudoeste 0 1008.8 -0.5 82
2019-11-17 10:00:00 9.7 13 Sudoeste 18 Sudoeste 0 1008.9 -0.9 85
2019-11-17 09:00:00 8.7 12 Sudoeste 18 Sudoeste 0 1009 -1 92
2019-11-17 08:00:00 8.6 14 Sudoeste 22 Sudoeste 0.1 1009.3 -0.9 93
2019-11-17 07:00:00 8.4 15 Sudoeste 28 Sudoeste 1 1009.8 -0.6 93
2019-11-17 06:00:00 8.9 20 Sudoeste 32 Sudoeste 0 1010 -0.9 87
2019-11-17 05:00:00 8.8 20 Sudoeste 30 Oeste 0 1010.2 -1.2 86
2019-11-17 04:00:00 8.5 17 Sudoeste 26 Sudoeste 0 1010.4 -1.3 86
2019-11-17 03:00:00 8.4 19 Sudoeste 32 Oeste 0 1010.9 -0.8 86
2019-11-17 02:00:00 8.4 21 Sudoeste -- -- -- 1011.4 -0.6 84
2019-11-17 01:00:00 8 19 Sudoeste 32 Sudoeste 0 1011.7 -0.2 86
2019-11-17 00:00:00 8.1 21 Sudoeste 37 Sudoeste 0 1011.7 -0.2 84
2019-11-16 23:00:00 8 19 Sudoeste 33 Sudoeste 0.8 1012 0.2 89
2019-11-16 22:00:00 8.3 17 Sudoeste 37 Sudoeste 0.1 1011.9 0.4 87
2019-11-16 21:00:00 8.4 23 Sudoeste 42 Sudoeste 1.2 1011.9 0.9 91
2019-11-16 20:00:00 8.4 23 Sudoeste 42 Oeste 3.1 1011.8 1.1 89
2019-11-16 19:00:00 8.6 28 Sudoeste 45 Oeste 1.2 1011.5 1.4 87
2019-11-16 18:00:00 8.1 21 Sudoeste 37 Sudoeste 8.2 1011 1.1 92
2019-11-16 17:00:00 8.1 15 Sudoeste 32 Oeste 9.8 1010.7 0.7 93
2019-11-16 16:00:00 7.4 20 Sudoeste 45 Sudoeste 3.1 1010.1 -0.4 92
2019-11-16 15:00:00 7.1 26 Sudoeste 39 Sudoeste 3 1009.9 -0.7 92
2019-11-16 14:00:00 6.8 26 Sudoeste 45 Sudoeste 1.8 1010 -0.3 91
2019-11-16 13:00:00 6.5 23 Sudoeste 41 Sudoeste 5.5 1010.5 0.4 91
2019-11-16 12:00:00 7 24 Sudoeste 37 Sudoeste 3.5 1010.6 1.6 91
2019-11-16 11:00:00 7.3 22 Sudoeste 32 Sudoeste 2.5 1010.3 1.1 89
2019-11-16 10:00:00 7.5 26 Sudoeste 45 Sudoeste 2.4 1010.1 0.6 83
2019-11-16 09:00:00 7 15 Sudoeste 28 Oeste 0.2 1009 0 83
2019-11-16 08:00:00 6.4 13 Sudoeste 21 Sudoeste 0.1 1009.2 0.3 85
2019-11-16 07:00:00 6.2 14 Sudoeste 22 Oeste 0 1009.5 0.6 85
2019-11-16 06:00:00 5.6 15 Sudoeste 26 Sudoeste 0 1009 0.3 88
2019-11-16 05:00:00 5.7 17 Sudoeste 24 Sudoeste 0 1008.9 0.7 89
2019-11-16 04:00:00 6 15 Sudoeste 28 Sudoeste 0.1 1008.9 0.9 90
2019-11-16 03:00:00 6.1 19 Sudoeste 26 Sudoeste 0 1008.7 1.1 90
2019-11-16 02:00:00 6 13 Sudoeste -- -- -- 1008.2 1 92
2019-11-16 01:00:00 5.6 17 Sudoeste 24 Sudoeste 0.1 1008 1.2 90
2019-11-16 00:00:00 5.7 17 Sudoeste 22 Sudoeste 0 1007.6 1 89